Portada
METAR-TAF:

METAR-TAF

Aeroports :

Nadi, Fiji

latitud: 17-45S, longitud: 177-27E, altitud: 13 m

Observació

L'informe es va fer fa 1 hora i 6 minuts, a les 03:00 UTC
Vent 13 kt del Oest/Nord-Oest
Temperatura 31°C
Humitat 55%
Pressió 1005 hPa
Visibilitat 10 km o més
Núvols disperses a una alçada de 3000 ft

METAR: NFFN 200300Z 30013KT 9999 SCT030 31/21 Q1005 NOSIG

Hora: 16:06 (04:06 UTC)

Pronòstic

L'informe es va fer fa 4 hores i 44 minuts, a les 23:22 UTC
Pronòstic vàlid del 20 a les 00 UTC al 20 a les 24 UTC
Vent 10 kt del Nord-Oest
Visibilitat 10 km o més
Escasses núvols a una alçada de 3000 ft
Núvols disperses a una alçada de 5000 ft
Evolucionant progressivament
l' 20 a les 04 UTC al 20 a les 06 UTC
Vent 8 kt del Sud-Est
Evolucionant progressivament
l' 20 a les 22 UTC al 20 a les 24 UTC
Vent 8 kt del Nord-Oest

TAF: NFFN 192322Z 2000/2024 31010KT 9999 FEW030 SCT050 BECMG 2004/2006 13008KT BECMG 2022/2024 31008KT

Observacions i pronòstics meteorològics de més de 4000 aeroports (METAR i TAF).

Les estacions disponibles són els punts grocs i vermells al mapa.

Posi el ratolí al punt desitjat per veure el nom de l'estació.

Feu clic per veure les observacions i els pronòstics meteorològics.

Per canviar el mapa: feu clic els botons verds amb una creu de color negre per apropar; al botó verd amb un guió per allunyar la imatge; o en les fletxes verdes per a mapes adjacents.


METAR-TAF: